createdAt,value
2022-12-25T00:01:27.265Z,20.83
2022-12-25T00:03:55.956Z,26.53
2022-12-25T00:06:24.827Z,26.13
2022-12-25T00:08:53.306Z,18.80
2022-12-25T00:11:22.030Z,22.80
2022-12-25T00:13:51.725Z,22.77
2022-12-25T00:16:22.035Z,14.63
2022-12-25T00:18:51.362Z,21.67
2022-12-25T00:21:20.913Z,14.77
2022-12-25T00:23:49.274Z,18.53
2022-12-25T00:26:19.030Z,19.70
2022-12-25T00:28:47.776Z,16.10
2022-12-25T00:31:19.607Z,23.73
2022-12-25T00:33:49.370Z,21.37
2022-12-25T00:36:19.624Z,17.50
2022-12-25T00:38:48.696Z,15.87
2022-12-25T00:41:38.743Z,19.93
2022-12-25T00:44:07.393Z,15.80
2022-12-25T00:46:44.243Z,22.40
2022-12-25T00:49:14.236Z,19.90
2022-12-25T00:51:42.715Z,22.77
2022-12-25T00:54:10.936Z,18.20
2022-12-25T00:56:40.222Z,14.03
2022-12-25T00:59:08.792Z,21.50
2022-12-25T01:01:40.233Z,21.40
2022-12-25T01:04:08.902Z,14.67
2022-12-25T01:06:37.591Z,23.77
2022-12-25T01:09:23.654Z,13.80
2022-12-25T01:11:51.861Z,21.23
2022-12-25T01:14:20.153Z,17.27
2022-12-25T01:16:49.999Z,18.93
2022-12-25T01:19:18.628Z,20.20
2022-12-25T01:21:46.896Z,18.67
2022-12-25T01:24:15.118Z,20.90
2022-12-25T01:26:43.350Z,18.37
2022-12-25T01:29:11.647Z,16.70
2022-12-25T01:31:40.119Z,15.30
2022-12-25T01:34:09.759Z,13.90
2022-12-25T01:36:38.047Z,18.67
2022-12-25T01:39:06.474Z,20.33
2022-12-25T01:41:34.851Z,20.77
2022-12-25T01:44:06.717Z,18.50
2022-12-25T01:46:35.908Z,14.17
2022-12-25T01:49:06.765Z,17.40
2022-12-25T01:51:40.871Z,22.20
2022-12-25T01:54:13.717Z,21.23
2022-12-25T01:56:43.669Z,17.23
2022-12-25T01:59:13.178Z,24.30
2022-12-25T02:01:42.069Z,20.50
2022-12-25T02:04:38.729Z,20.20
2022-12-25T02:07:11.564Z,15.87
2022-12-25T02:09:40.044Z,14.07
2022-12-25T02:12:10.918Z,23.70
2022-12-25T02:14:39.605Z,22.97
2022-12-25T02:17:18.379Z,9.80
2022-12-25T02:20:07.351Z,23.80
2022-12-25T02:22:50.017Z,18.67
2022-12-25T02:25:34.956Z,17.70
2022-12-25T02:28:12.154Z,16.60
2022-12-25T02:30:44.185Z,23.60
2022-12-25T02:33:35.052Z,17.50
2022-12-25T02:36:08.446Z,20.70
2022-12-25T02:39:00.863Z,17.87
2022-12-25T02:41:31.911Z,23.00
2022-12-25T02:44:21.827Z,18.30
2022-12-25T02:47:11.046Z,20.53
2022-12-25T02:49:58.861Z,17.73
2022-12-25T02:52:49.047Z,16.33
2022-12-25T02:55:38.777Z,17.07
2022-12-25T02:58:28.208Z,20.50
2022-12-25T03:01:21.831Z,18.97
2022-12-25T03:04:22.419Z,18.53
2022-12-25T03:07:07.470Z,18.10
2022-12-25T03:09:58.146Z,22.70
2022-12-25T03:12:42.089Z,32.77
2022-12-25T03:15:29.470Z,22.73
2022-12-25T03:18:02.963Z,19.93
2022-12-25T03:20:49.465Z,20.43
2022-12-25T03:23:54.543Z,13.47
2022-12-25T03:26:40.490Z,20.27
2022-12-25T03:29:08.725Z,18.83
2022-12-25T03:31:44.023Z,16.30
2022-12-25T03:34:45.832Z,13.13
2022-12-25T03:37:53.393Z,15.63
2022-12-25T03:40:47.525Z,14.67
2022-12-25T03:43:40.380Z,15.13
2022-12-25T03:46:32.591Z,17.53
2022-12-25T03:49:25.931Z,13.83
2022-12-25T03:52:14.515Z,20.00
2022-12-25T03:55:02.621Z,14.93
2022-12-25T03:57:51.498Z,24.30
2022-12-25T04:00:36.724Z,14.10
2022-12-25T04:03:22.710Z,17.70
2022-12-25T04:06:08.390Z,14.13
2022-12-25T04:08:55.135Z,15.10
2022-12-25T04:11:41.015Z,21.30
2022-12-25T04:14:26.709Z,15.23
2022-12-25T04:17:12.135Z,16.20
2022-12-25T04:19:57.878Z,18.80
2022-12-25T04:22:43.548Z,16.07
2022-12-25T04:25:30.975Z,16.30
2022-12-25T04:28:20.225Z,16.57
2022-12-25T04:31:06.286Z,14.33
2022-12-25T04:33:52.206Z,19.77
2022-12-25T04:36:20.452Z,18.53
2022-12-25T04:38:49.146Z,20.57
2022-12-25T04:41:18.937Z,16.27
2022-12-25T04:43:47.146Z,12.87
2022-12-25T04:46:15.419Z,12.60
2022-12-25T04:48:43.724Z,16.67
2022-12-25T04:51:17.133Z,18.07
2022-12-25T04:53:52.507Z,14.87
2022-12-25T04:56:22.624Z,12.50
2022-12-25T04:58:51.114Z,16.47
2022-12-25T05:01:19.487Z,15.87
2022-12-25T05:03:49.465Z,19.60
2022-12-25T05:06:17.828Z,16.70
2022-12-25T05:08:46.154Z,20.13
2022-12-25T05:11:16.646Z,16.97
2022-12-25T05:13:46.530Z,21.07
2022-12-25T05:16:17.428Z,15.30
2022-12-25T05:18:46.313Z,16.67
2022-12-25T05:21:14.654Z,13.90
2022-12-25T05:23:48.547Z,19.97
2022-12-25T05:26:20.126Z,18.13
2022-12-25T05:28:50.618Z,19.20
2022-12-25T05:31:19.201Z,17.87
2022-12-25T05:33:50.044Z,18.27
2022-12-25T05:36:18.784Z,19.70
2022-12-25T05:38:47.115Z,16.30
2022-12-25T05:41:15.529Z,13.87
2022-12-25T05:43:43.840Z,17.10
2022-12-25T05:46:15.504Z,15.03
2022-12-25T05:48:43.817Z,19.30
2022-12-25T05:51:14.001Z,16.43
2022-12-25T05:53:43.032Z,14.63
2022-12-25T05:56:11.816Z,17.23
2022-12-25T05:58:40.758Z,14.60
2022-12-25T06:01:14.932Z,13.37
2022-12-25T06:03:43.432Z,16.53
2022-12-25T06:06:12.734Z,11.33
2022-12-25T06:08:41.012Z,13.20
2022-12-25T06:11:10.401Z,10.90
2022-12-25T06:13:39.320Z,13.50
2022-12-25T06:16:09.556Z,15.23
2022-12-25T06:18:40.521Z,15.53
2022-12-25T06:21:09.537Z,13.60
2022-12-25T06:23:38.631Z,15.77
2022-12-25T06:26:08.195Z,14.57
2022-12-25T06:28:38.068Z,15.57
2022-12-25T06:31:10.411Z,17.00
2022-12-25T06:33:40.571Z,13.30
2022-12-25T06:36:09.917Z,18.20
2022-12-25T06:38:38.395Z,20.17
2022-12-25T06:41:08.669Z,15.37
2022-12-25T06:43:37.029Z,16.87
2022-12-25T06:46:06.158Z,15.53
2022-12-25T06:48:35.548Z,15.33
2022-12-25T06:51:06.370Z,16.67
2022-12-25T06:53:40.544Z,13.57
2022-12-25T06:56:20.187Z,13.47
2022-12-25T06:58:54.065Z,19.33
2022-12-25T07:01:25.387Z,17.10
2022-12-25T07:03:56.351Z,15.57
2022-12-25T07:06:26.434Z,16.17
2022-12-25T07:08:55.264Z,16.40
2022-12-25T07:11:24.124Z,12.00
2022-12-25T07:13:52.597Z,13.77
2022-12-25T07:16:21.503Z,15.97
2022-12-25T07:18:49.792Z,15.03
2022-12-25T07:21:19.763Z,15.70
2022-12-25T07:23:51.466Z,14.17
2022-12-25T07:26:20.078Z,13.33
2022-12-25T07:28:48.581Z,13.93
2022-12-25T07:31:18.377Z,12.57
2022-12-25T07:33:46.884Z,15.23
2022-12-25T07:36:16.814Z,13.80
2022-12-25T07:38:45.875Z,14.50
2022-12-25T07:41:15.475Z,16.23
2022-12-25T07:43:43.875Z,14.80
2022-12-25T07:46:12.572Z,11.67
2022-12-25T07:48:40.807Z,14.13
2022-12-25T07:51:13.174Z,17.63
2022-12-25T07:53:41.879Z,12.93
2022-12-25T07:56:13.140Z,10.87
2022-12-25T07:58:42.967Z,11.70
2022-12-25T08:01:13.912Z,13.80
2022-12-25T08:03:42.274Z,11.43
2022-12-25T08:06:12.254Z,9.90
2022-12-25T08:08:42.276Z,11.80
2022-12-25T08:11:11.185Z,10.50
2022-12-25T08:13:40.256Z,12.63
2022-12-25T08:16:12.257Z,10.50
2022-12-25T08:18:43.222Z,13.00
2022-12-25T08:21:13.749Z,10.47
2022-12-25T08:23:43.990Z,9.23
2022-12-25T08:26:15.435Z,12.40
2022-12-25T08:28:43.898Z,12.17
2022-12-25T08:31:17.217Z,11.90
2022-12-25T08:33:46.205Z,27.40
2022-12-25T08:36:14.862Z,12.80
2022-12-25T08:38:43.648Z,10.10
2022-12-25T08:41:13.377Z,9.23
2022-12-25T08:43:42.232Z,9.70
2022-12-25T08:46:11.197Z,9.57
2022-12-25T08:48:43.258Z,11.67
2022-12-25T08:51:14.591Z,8.27
2022-12-25T08:53:43.330Z,8.93
2022-12-25T08:56:12.217Z,8.07
2022-12-25T08:58:40.958Z,9.37
2022-12-25T09:01:09.869Z,8.17
2022-12-25T09:03:38.323Z,10.07
2022-12-25T09:06:10.426Z,9.83
2022-12-25T09:08:46.206Z,6.50
2022-12-25T09:11:18.040Z,9.20
2022-12-25T09:13:46.322Z,8.17
2022-12-25T09:16:16.801Z,8.20
2022-12-25T09:18:48.919Z,8.87
2022-12-25T09:21:23.746Z,9.90
2022-12-25T09:23:52.467Z,7.50
2022-12-25T09:26:21.567Z,5.70
2022-12-25T09:28:52.637Z,9.57
2022-12-25T09:31:22.267Z,8.80
2022-12-25T09:33:51.113Z,6.57
2022-12-25T09:36:23.583Z,6.03
2022-12-25T09:38:52.075Z,5.63
2022-12-25T09:41:28.457Z,7.83
2022-12-25T09:44:00.942Z,5.57
2022-12-25T09:46:37.032Z,4.97
2022-12-25T09:52:56.506Z,5.37
2022-12-25T09:55:27.023Z,4.83
2022-12-25T09:57:57.608Z,5.73
2022-12-25T10:00:30.278Z,5.37
2022-12-25T10:03:24.572Z,5.93
2022-12-25T10:06:03.360Z,5.40
2022-12-25T10:09:01.107Z,5.37
2022-12-25T10:11:43.195Z,9.00
2022-12-25T10:14:22.197Z,4.00
2022-12-25T10:17:03.670Z,3.97
2022-12-25T10:19:43.673Z,5.97
2022-12-25T10:22:20.507Z,4.00
2022-12-25T10:24:56.315Z,4.13
2022-12-25T10:27:32.614Z,3.47
2022-12-25T10:30:02.549Z,6.30
2022-12-25T10:32:30.795Z,2.70
2022-12-25T10:34:59.035Z,5.60
2022-12-25T10:37:35.319Z,4.40
2022-12-25T10:40:21.401Z,3.27
2022-12-25T10:42:54.331Z,2.93
2022-12-25T10:45:25.008Z,5.07
2022-12-25T10:48:12.954Z,4.87
2022-12-25T10:51:00.098Z,4.10
2022-12-25T10:53:42.812Z,4.40
2022-12-25T10:56:25.002Z,3.57
2022-12-25T10:59:09.637Z,6.43
2022-12-25T11:01:39.709Z,3.27
2022-12-25T11:04:20.330Z,2.87
2022-12-25T11:07:01.823Z,3.90
2022-12-25T11:09:30.441Z,6.50
2022-12-25T11:12:00.857Z,3.83
2022-12-25T11:14:31.072Z,6.83
2022-12-25T11:17:14.631Z,5.10
2022-12-25T11:19:59.759Z,4.80
2022-12-25T11:22:29.066Z,6.97
2022-12-25T11:24:57.440Z,3.27
2022-12-25T11:27:30.791Z,3.50
2022-12-25T11:30:00.998Z,4.83
2022-12-25T11:32:32.581Z,5.60
2022-12-25T11:35:02.683Z,4.17
2022-12-25T11:37:36.661Z,4.93
2022-12-25T11:40:07.278Z,4.73
2022-12-25T11:42:39.358Z,6.03
2022-12-25T11:45:17.991Z,5.27
2022-12-25T11:47:54.600Z,4.10
2022-12-25T11:50:31.626Z,4.67
2022-12-25T11:53:02.410Z,4.63
2022-12-25T11:55:39.075Z,7.73
2022-12-25T11:58:18.502Z,5.50
2022-12-25T12:00:49.743Z,5.80
2022-12-25T12:03:28.017Z,5.10
2022-12-25T12:06:07.192Z,3.87
2022-12-25T12:08:45.145Z,3.50
2022-12-25T12:11:20.708Z,4.63
2022-12-25T12:14:03.866Z,4.60
2022-12-25T12:16:32.423Z,4.97
2022-12-25T12:19:13.021Z,4.83
2022-12-25T12:21:44.399Z,4.67
2022-12-25T12:24:15.305Z,4.57
2022-12-25T12:26:46.603Z,4.13
2022-12-25T12:29:27.379Z,5.10
2022-12-25T12:32:01.173Z,3.87
2022-12-25T12:34:31.752Z,3.17
2022-12-25T12:37:05.242Z,3.60
2022-12-25T12:39:38.842Z,3.40
2022-12-25T12:42:15.978Z,4.20
2022-12-25T12:44:48.775Z,4.50
2022-12-25T12:47:34.747Z,7.10
2022-12-25T12:50:03.486Z,2.90
2022-12-25T12:52:37.313Z,4.43
2022-12-25T12:55:09.157Z,3.07
2022-12-25T12:57:40.760Z,6.13
2022-12-25T13:00:25.417Z,5.60
2022-12-25T13:03:17.638Z,2.27
2022-12-25T13:05:55.301Z,3.03
2022-12-25T13:08:42.939Z,2.97
2022-12-25T13:11:23.443Z,3.93
2022-12-25T13:13:53.995Z,3.90
2022-12-25T13:16:31.212Z,3.00
2022-12-25T13:19:01.948Z,3.20
2022-12-25T13:21:32.511Z,3.40
2022-12-25T13:24:02.615Z,6.43
2022-12-25T13:26:32.516Z,3.27
2022-12-25T13:29:06.443Z,5.87
2022-12-25T13:31:51.848Z,6.10
2022-12-25T13:34:33.528Z,3.87
2022-12-25T13:37:09.640Z,4.67
2022-12-25T13:39:58.506Z,2.97
2022-12-25T13:42:33.115Z,4.13
2022-12-25T13:45:06.524Z,3.13
2022-12-25T13:47:37.905Z,2.63
2022-12-25T13:50:24.071Z,3.00
2022-12-25T13:52:53.818Z,2.77
2022-12-25T13:55:24.113Z,5.30
2022-12-25T13:57:57.911Z,2.80
2022-12-25T14:00:35.405Z,7.07
2022-12-25T14:03:07.491Z,3.60
2022-12-25T14:05:42.746Z,4.07
2022-12-25T14:08:17.822Z,4.03
2022-12-25T14:10:50.716Z,5.50
2022-12-25T14:13:21.784Z,2.93
2022-12-25T14:15:53.986Z,3.37
2022-12-25T14:18:27.086Z,4.13
2022-12-25T14:21:07.067Z,3.90
2022-12-25T14:23:43.104Z,3.07
2022-12-25T14:26:23.114Z,4.30
2022-12-25T14:28:55.632Z,3.87
2022-12-25T14:31:34.222Z,4.77
2022-12-25T14:34:25.165Z,2.83
2022-12-25T14:37:00.421Z,3.77
2022-12-25T14:39:38.126Z,3.30
2022-12-25T14:42:19.856Z,5.80
2022-12-25T14:45:11.860Z,4.17
2022-12-25T14:47:52.564Z,5.53
2022-12-25T14:50:30.698Z,3.23
2022-12-25T14:53:04.192Z,3.77
2022-12-25T14:55:32.564Z,3.93
2022-12-25T14:58:05.237Z,4.50
2022-12-25T15:00:37.112Z,3.57
2022-12-25T15:03:08.589Z,4.50
2022-12-25T15:05:40.234Z,4.60
2022-12-25T15:08:22.915Z,3.90
2022-12-25T15:11:01.870Z,4.93
2022-12-25T15:13:32.997Z,5.10
2022-12-25T15:16:07.395Z,5.20
2022-12-25T15:18:39.972Z,5.43
2022-12-25T15:21:20.023Z,5.67
2022-12-25T15:23:49.950Z,5.70
2022-12-25T15:26:18.189Z,4.57
2022-12-25T15:28:47.134Z,6.20
2022-12-25T15:31:22.407Z,5.53
2022-12-25T15:33:50.987Z,5.07
2022-12-25T15:36:21.107Z,7.03
2022-12-25T15:38:49.644Z,5.87
2022-12-25T15:41:43.357Z,16.77
2022-12-25T15:44:15.766Z,7.93
2022-12-25T15:46:46.127Z,8.03
2022-12-25T15:49:16.378Z,6.03
2022-12-25T15:51:51.629Z,6.00
2022-12-25T15:54:23.882Z,6.03
2022-12-25T15:56:55.059Z,5.47
2022-12-25T15:59:24.541Z,4.73
2022-12-25T16:01:54.358Z,6.20
2022-12-25T16:04:24.959Z,4.83
2022-12-25T16:06:55.150Z,6.83
2022-12-25T16:09:23.833Z,4.97
2022-12-25T16:11:58.548Z,6.47
2022-12-25T16:14:32.291Z,5.97
2022-12-25T16:17:06.712Z,7.83
2022-12-25T16:19:42.005Z,5.83
2022-12-25T16:22:24.223Z,6.10
2022-12-25T16:24:53.525Z,6.80
2022-12-25T16:27:25.904Z,4.80
2022-12-25T16:29:54.640Z,6.80
2022-12-25T16:32:24.697Z,6.07
2022-12-25T16:34:53.380Z,6.83
2022-12-25T16:37:23.917Z,6.47
2022-12-25T16:39:54.027Z,5.20
2022-12-25T16:42:25.647Z,7.20
2022-12-25T16:44:54.534Z,7.03
2022-12-25T16:47:23.444Z,6.57
2022-12-25T16:49:52.477Z,6.70
2022-12-25T16:52:22.505Z,8.27
2022-12-25T16:54:53.210Z,6.13
2022-12-25T16:57:24.621Z,4.43
2022-12-25T16:59:58.852Z,6.10
2022-12-25T17:02:27.709Z,5.43
2022-12-25T17:04:56.863Z,6.43
2022-12-25T17:07:27.719Z,5.53
2022-12-25T17:09:58.475Z,5.27
2022-12-25T17:12:26.927Z,6.27
2022-12-25T17:14:55.311Z,4.63
2022-12-25T17:17:23.547Z,4.80
2022-12-25T17:19:51.772Z,4.93
2022-12-25T17:22:23.641Z,8.83
2022-12-25T17:24:58.214Z,5.00
2022-12-25T17:27:29.468Z,5.13
2022-12-25T17:29:59.674Z,6.40
2022-12-25T17:32:27.921Z,4.63
2022-12-25T17:34:56.766Z,5.17
2022-12-25T17:37:25.750Z,5.67
2022-12-25T17:39:55.882Z,5.40
2022-12-25T17:42:24.310Z,6.93
2022-12-25T17:44:57.956Z,5.37
2022-12-25T17:47:26.584Z,5.90
2022-12-25T17:49:56.461Z,7.70
2022-12-25T17:52:28.367Z,5.33
2022-12-25T17:55:02.976Z,7.60
2022-12-25T17:57:32.110Z,5.60
2022-12-25T18:00:04.866Z,6.37
2022-12-25T18:02:34.958Z,6.30
2022-12-25T18:05:16.559Z,5.03
2022-12-25T18:07:47.715Z,6.93
2022-12-25T18:10:19.761Z,7.47
2022-12-25T18:12:49.149Z,5.70
2022-12-25T18:15:20.737Z,6.37
2022-12-25T18:17:51.289Z,6.10
2022-12-25T18:20:19.671Z,8.33
2022-12-25T18:22:48.232Z,6.07
2022-12-25T18:25:22.007Z,5.97
2022-12-25T18:27:55.843Z,7.07
2022-12-25T18:30:30.089Z,6.67
2022-12-25T18:33:01.167Z,6.83
2022-12-25T18:35:30.080Z,5.37
2022-12-25T18:37:58.945Z,7.03
2022-12-25T18:40:28.725Z,10.53
2022-12-25T18:43:02.974Z,5.60
2022-12-25T18:45:32.080Z,7.37
2022-12-25T18:48:03.950Z,7.33
2022-12-25T18:50:32.208Z,6.97
2022-12-25T18:53:00.628Z,8.83
2022-12-25T18:55:30.941Z,6.30
2022-12-25T18:58:03.879Z,6.90
2022-12-25T19:00:32.289Z,9.67
2022-12-25T19:03:05.995Z,10.20
2022-12-25T19:05:41.876Z,16.17
2022-12-25T19:08:12.095Z,10.50
2022-12-25T19:10:54.676Z,6.10
2022-12-25T19:13:23.461Z,10.90
2022-12-25T19:15:52.938Z,11.00
2022-12-25T19:18:30.114Z,10.90
2022-12-25T19:21:07.480Z,7.47
2022-12-25T19:23:38.806Z,8.77
2022-12-25T19:26:12.521Z,10.70
2022-12-25T19:28:41.177Z,8.87
2022-12-25T19:31:11.426Z,8.47
2022-12-25T19:33:41.910Z,7.27
2022-12-25T19:36:14.910Z,8.23
2022-12-25T19:38:43.813Z,7.60
2022-12-25T19:41:16.368Z,9.97
2022-12-25T19:43:51.400Z,9.33
2022-12-25T19:46:30.478Z,9.67
2022-12-25T19:49:04.520Z,12.43
2022-12-25T19:51:35.344Z,10.10
2022-12-25T19:54:04.098Z,9.83
2022-12-25T19:56:34.935Z,9.53
2022-12-25T19:59:03.720Z,12.60
2022-12-25T20:01:33.449Z,9.30
2022-12-25T20:04:02.261Z,8.23
2022-12-25T20:06:34.274Z,10.47
2022-12-25T20:09:05.364Z,8.10
2022-12-25T20:11:37.323Z,6.67
2022-12-25T20:14:10.818Z,8.03
2022-12-25T20:16:44.680Z,7.80
2022-12-25T20:19:22.167Z,6.57
2022-12-25T20:22:10.562Z,7.77
2022-12-25T20:25:00.154Z,8.00
2022-12-25T20:27:32.212Z,10.77
2022-12-25T20:30:01.278Z,7.40
2022-12-25T20:32:31.493Z,8.03
2022-12-25T20:35:00.455Z,8.90
2022-12-25T20:37:29.200Z,10.80
2022-12-25T20:39:58.209Z,9.40
2022-12-25T20:42:27.717Z,8.23
2022-12-25T20:44:59.996Z,6.30
2022-12-25T20:47:29.644Z,8.60
2022-12-25T20:50:01.107Z,9.40
2022-12-25T20:52:43.834Z,8.70
2022-12-25T20:55:17.786Z,7.53
2022-12-25T20:57:47.051Z,7.60
2022-12-25T21:00:17.508Z,9.93
2022-12-25T21:02:46.395Z,6.47
2022-12-25T21:05:15.882Z,7.93
2022-12-25T21:07:47.666Z,12.20
2022-12-25T21:10:18.993Z,11.77
2022-12-25T21:12:49.924Z,8.97
2022-12-25T21:15:24.824Z,14.73
2022-12-25T21:17:56.509Z,9.40
2022-12-25T21:20:24.999Z,7.33
2022-12-25T21:22:53.595Z,7.47
2022-12-25T21:25:22.452Z,6.13
2022-12-25T21:27:51.451Z,6.63
2022-12-25T21:30:21.480Z,8.37
2022-12-25T21:33:11.368Z,8.90
2022-12-25T21:35:40.280Z,9.83
2022-12-25T21:38:08.958Z,8.87
2022-12-25T21:40:39.084Z,7.87
2022-12-25T21:43:08.670Z,8.50
2022-12-25T21:45:37.701Z,6.60
2022-12-25T21:48:08.214Z,8.63
2022-12-25T21:50:54.083Z,7.53
2022-12-25T21:53:25.177Z,8.80
2022-12-25T21:56:02.621Z,6.10
2022-12-25T21:58:31.332Z,7.60
2022-12-25T22:01:06.771Z,6.53
2022-12-25T22:03:37.109Z,9.43
2022-12-25T22:06:23.628Z,7.67
2022-12-25T22:08:52.245Z,6.83
2022-12-25T22:11:37.963Z,6.63
2022-12-25T22:14:52.443Z,6.30
2022-12-25T22:17:45.320Z,5.80
2022-12-25T22:20:20.497Z,6.77
2022-12-25T22:22:51.905Z,6.53
2022-12-25T22:25:21.476Z,8.63
2022-12-25T22:27:51.059Z,5.93
2022-12-25T22:30:22.215Z,6.67
2022-12-25T22:32:50.708Z,6.97
2022-12-25T22:35:21.533Z,6.80
2022-12-25T22:37:49.990Z,5.30
2022-12-25T22:40:21.803Z,9.87
2022-12-25T22:42:50.477Z,8.90
2022-12-25T22:45:19.498Z,8.13
2022-12-25T22:47:48.506Z,6.27
2022-12-25T22:50:17.478Z,7.40
2022-12-25T22:52:47.454Z,5.03
2022-12-25T22:55:20.395Z,6.30
2022-12-25T22:57:49.196Z,5.83
2022-12-25T23:00:18.733Z,6.67
2022-12-25T23:02:50.380Z,9.03
2022-12-25T23:05:19.159Z,6.47
2022-12-25T23:07:49.144Z,7.53
2022-12-25T23:10:20.306Z,5.33
2022-12-25T23:13:06.510Z,6.47
2022-12-25T23:15:35.450Z,5.70
2022-12-25T23:18:21.496Z,5.40
2022-12-25T23:21:09.841Z,5.33
2022-12-25T23:23:57.125Z,7.13
2022-12-25T23:26:25.736Z,5.00
2022-12-25T23:29:12.449Z,6.03
2022-12-25T23:31:42.768Z,5.17
2022-12-25T23:34:11.860Z,5.10
2022-12-25T23:36:40.627Z,6.37
2022-12-25T23:39:11.829Z,5.67
2022-12-25T23:41:44.182Z,6.20
2022-12-25T23:44:13.408Z,4.80
2022-12-25T23:46:52.603Z,7.20
2022-12-25T23:49:22.347Z,9.43
2022-12-25T23:51:50.741Z,5.30
2022-12-25T23:54:22.362Z,4.57
2022-12-25T23:56:51.201Z,4.30
2022-12-25T23:59:20.869Z,6.40
